Historyczne dane pomiarowe

Dodano dane terminowe – wersja testowa.

Dane z okresu 1951-2019

Wersja bazy: 1.34 [2019-03-16, lista zmian], aktualizacja planowana na 2019-04-15

Dane meteo z obszaru Polski uzyskane na podstawie danych udostępnionych przez Instytut Meteorologii i Gospodarki Wodnej – Państwowy Instytut Badawczy.

 

Wybierz Datę:    

       

TemperaturaWilgotnośćWiatrCiśnienieOpadyŚniegCzas trwania zjawisk
 Stacja t tx tn tng RH VA  wxwx mslp ppp RRR   cm mm wxwxwxwxwxwxwx
1983-08-14 14.7 19.4 8.3--- 2.0 2.7---- 0.0------------
1983-08-13 15.2 21.1 11.4--- 5.7 3.7---- 0.8------------
1983-08-12 21.0 26.2 12.0--- 0.7 2.3---- 5.4------------
1983-08-11 19.6 26.8 13.0--- 4.3 1.7---- 0.0------------
1983-08-10 20.3 26.5 11.8--- 0.7 1.7---- 0.0------------
1983-08-09 21.5 26.7 14.5--- 2.3 2.3---- 0.0------------
1983-08-08 21.4 27.7 15.2--- 5.3 2.7---- 5.5------------
1983-08-07 19.8 25.9 15.1--- 4.3 2.7---- 1.8------------
1983-08-06 16.8 22.4 8.3--- 3.7 1.3---- 0.0------------
1983-08-05 13.8 17.6 11.2--- 6.7 1.0---- 0.0------------
1983-08-04 16.1 19.4 15.0--- 7.0 1.0---- 10.0------------
1983-08-03 21.1 28.7 15.8--- 5.7 3.7---- 4.7------------
1983-08-02 22.3 29.2 11.8--- 3.7 4.3---- 0.0------------
1983-08-01 19.0 28.4 9.3--- 0.0 3.0---- 0.0------------
1983-07-31 18.2 25.1 10.7--- 3.0 2.0---- 0.0------------
1983-07-30 16.9 21.8 14.7--- 5.7 3.3---- 0.0------------
1983-07-29 19.5 24.6 13.0--- 2.7 3.3---- 0.4------------
1983-07-28 21.4 25.7 19.0--- 3.0 3.7---- 0.0------------
1983-07-27 22.3 30.5 11.8--- 2.0 1.0---- 2.5------------
1983-07-26 20.6 29.0 13.6--- 3.7 3.7---- 0.0------------
1983-07-25 15.7 19.1 9.6--- 7.0 2.3---- 1.8------------
1983-07-24 15.5 19.9 10.8--- 5.3 1.0---- 10.5------------
1983-07-23 16.1 22.2 11.8--- 6.0 4.3---- 0.0------------
1983-07-22 14.6 19.6 8.8--- 4.3 3.0---- 1.4------------
1983-07-21 13.4 16.9 8.4--- 2.7 4.3---- 0.5------------
1983-07-20 13.5 22.9 11.3--- 4.7 1.0---- 7.3------------
1983-07-19 22.6 25.6 17.3--- 4.0 2.7---- 0.1------------
1983-07-18 20.6 28.5 8.0--- 1.7 1.0---- 0.0------------
1983-07-17 19.1 23.6 11.6--- 0.7 1.0---- 0.0------------
1983-07-16 18.2 26.9 10.3--- 5.7 2.0---- 2.6------------
1983-07-15 19.2 26.2 9.8--- 3.7 2.3---- 0.0------------
1983-07-14 19.6 25.1 16.4--- 4.0 3.7---- 0.0------------
1983-07-13 20.3 27.1 14.1--- 4.3 2.7---- 0.7------------
1983-07-12 21.6 27.2 16.4--- 4.3 3.3---- 1.2------------
1983-07-11 23.1 29.7 15.3--- 4.3 3.3---- 0.3------------
1983-07-10 23.0 29.5 14.2--- 2.7 4.3---- 0.0------------
1983-07-09 21.3 28.3 12.8--- 2.0 2.3---- 0.0------------
1983-07-08 19.1 26.7 9.6--- 0.7 1.7---- 0.0------------
1983-07-07 19.4 26.6 10.4--- 0.0 2.7---- 0.0------------
1983-07-06 19.7 26.7 10.9--- 1.0 1.7---- 0.0------------
1983-07-05 18.3 24.1 10.2--- 1.0 0.7---- 0.0------------
1983-07-04 21.1 25.5 15.2--- 3.7 3.7---- 0.0------------
1983-07-03 17.5 26.2 7.5--- 4.3 3.0---- 0.0------------
1983-07-02 16.8 23.1 13.0--- 4.0 2.7---- 1.2------------
1983-07-01 19.1 25.2 9.7--- 1.3 1.7---- 0.0------------
1983-06-30 16.5 22.9 8.0--- 1.7 3.0---- 0.0------------
1983-06-29 14.5 18.3 8.1--- 2.0 2.3---- 0.0------------
1983-06-28 16.7 18.8 13.0--- 5.3 2.3---- 1.4------------
1983-06-27 16.2 25.2 8.7--- 5.3 2.7---- 12.4------------
1983-06-26 18.2 23.9 8.7--- 1.7 2.3---- 3.3------------
1983-06-25 19.6 27.2 9.9--- 4.7 2.0---- 0.0------------
1983-06-24 18.3 27.2 4.9--- 0.3 2.3---- 0.0------------
1983-06-23 15.0 21.7 3.3--- 0.0 3.0---- 0.0------------
1983-06-22 15.6 28.6 3.2--- 0.0 1.7---- 0.0------------
1983-06-21 16.5 24.1 10.0--- 0.0 2.7---- 0.0------------
1983-06-20 19.1 24.4 11.4--- 0.0 3.0---- 0.0------------
1983-06-19 16.8 24.4 12.7--- 5.3 4.3---- 0.0------------
1983-06-18 12.9 17.0 8.8--- 7.0 2.7---- 0.0------------
1983-06-17 14.5 18.1 8.8--- 5.0 2.7---- 0.0------------
1983-06-16 13.4 16.3 11.4--- 6.7 4.7---- 0.0------------
324.5 ms

 

Źródłem pochodzenia danych jest Instytut Meteorologii i Gospodarki Wodnej – Państwowy Instytut Badawczy. Dane Instytutu Meteorologii i Gospodarki Wodnej – Państwowego Instytutu Badawczego zostały przetworzone.

Dane źródłowe można odnaleźć na stronie https://dane.imgw.pl